createdAt,value
2022-10-14T00:01:21.578Z,13.80
2022-10-14T00:03:51.788Z,13.90
2022-10-14T00:06:25.255Z,13.90
2022-10-14T00:08:54.275Z,13.80
2022-10-14T00:11:24.758Z,13.80
2022-10-14T00:13:56.747Z,13.80
2022-10-14T00:16:27.454Z,13.90
2022-10-14T00:18:55.884Z,13.80
2022-10-14T00:21:26.214Z,13.90
2022-10-14T00:23:56.362Z,13.90
2022-10-14T00:26:27.337Z,13.90
2022-10-14T00:28:55.750Z,13.80
2022-10-14T00:31:28.366Z,13.70
2022-10-14T00:33:57.876Z,13.80
2022-10-14T00:36:28.123Z,13.80
2022-10-14T00:38:57.829Z,13.70
2022-10-14T00:41:28.125Z,13.70
2022-10-14T00:44:00.202Z,13.80
2022-10-14T00:46:30.534Z,13.80
2022-10-14T00:49:07.215Z,13.70
2022-10-14T00:51:39.166Z,13.70
2022-10-14T00:54:08.362Z,13.70
2022-10-14T00:56:37.411Z,13.70
2022-10-14T00:59:09.596Z,13.70
2022-10-14T01:01:37.989Z,13.70
2022-10-14T01:04:06.387Z,13.70
2022-10-14T01:06:50.342Z,13.70
2022-10-14T01:09:25.411Z,13.70
2022-10-14T01:12:27.655Z,13.70
2022-10-14T01:14:59.744Z,13.70
2022-10-14T01:17:37.605Z,13.70
2022-10-14T01:20:28.673Z,13.70
2022-10-14T01:23:13.069Z,13.70
2022-10-14T01:25:54.014Z,13.60
2022-10-14T01:28:29.251Z,13.60
2022-10-14T01:31:03.063Z,13.60
2022-10-14T01:33:38.025Z,13.70
2022-10-14T01:36:11.382Z,13.70
2022-10-14T01:38:45.108Z,13.70
2022-10-14T01:41:20.040Z,13.70
2022-10-14T01:43:51.346Z,13.70
2022-10-14T01:46:24.052Z,13.70
2022-10-14T01:48:55.870Z,13.70
2022-10-14T01:51:29.578Z,13.80
2022-10-14T01:54:02.207Z,13.70
2022-10-14T01:56:34.971Z,13.70
2022-10-14T01:59:08.522Z,13.70
2022-10-14T02:01:38.301Z,13.70
2022-10-14T02:04:16.058Z,13.60
2022-10-14T02:06:49.577Z,13.60
2022-10-14T02:09:24.961Z,13.70
2022-10-14T02:12:12.508Z,13.70
2022-10-14T02:14:45.783Z,13.70
2022-10-14T02:17:21.659Z,13.70
2022-10-14T02:19:54.235Z,13.70
2022-10-14T02:22:29.954Z,13.80
2022-10-14T02:25:20.443Z,13.90
2022-10-14T02:27:51.487Z,13.80
2022-10-14T02:30:20.589Z,13.80
2022-10-14T02:32:59.794Z,13.80
2022-10-14T02:35:31.581Z,13.80
2022-10-14T02:38:00.831Z,13.80
2022-10-14T02:40:34.284Z,13.70
2022-10-14T02:43:02.984Z,13.70
2022-10-14T02:45:31.305Z,13.60
2022-10-14T02:48:02.394Z,13.60
2022-10-14T02:50:31.115Z,13.60
2022-10-14T02:52:59.418Z,13.60
2022-10-14T02:55:27.721Z,13.50
2022-10-14T02:57:56.158Z,13.50
2022-10-14T03:00:24.345Z,13.50
2022-10-14T03:02:54.383Z,13.50
2022-10-14T03:05:24.719Z,13.50
2022-10-14T03:07:55.134Z,13.50
2022-10-14T03:10:32.025Z,13.60
2022-10-14T03:13:00.229Z,13.50
2022-10-14T03:15:33.195Z,13.60
2022-10-14T03:18:01.328Z,13.60
2022-10-14T03:20:40.542Z,13.60
2022-10-14T03:23:10.433Z,13.60
2022-10-14T03:25:40.112Z,13.60
2022-10-14T03:28:11.574Z,13.60
2022-10-14T03:30:49.630Z,13.60
2022-10-14T03:33:33.678Z,13.70
2022-10-14T03:36:10.603Z,13.70
2022-10-14T03:38:45.891Z,13.70
2022-10-14T03:41:24.969Z,13.60
2022-10-14T03:43:54.366Z,13.60
2022-10-14T03:46:23.029Z,13.60
2022-10-14T03:48:54.031Z,13.70
2022-10-14T03:51:24.159Z,13.70
2022-10-14T03:53:55.444Z,13.70
2022-10-14T03:56:29.283Z,13.60
2022-10-14T03:58:58.893Z,13.60
2022-10-14T04:01:28.063Z,13.60
2022-10-14T04:04:16.646Z,13.60
2022-10-14T04:06:48.242Z,13.60
2022-10-14T04:09:20.367Z,13.50
2022-10-14T04:11:49.599Z,13.50
2022-10-14T04:14:47.229Z,13.50
2022-10-14T04:17:16.135Z,13.50
2022-10-14T04:19:45.302Z,13.50
2022-10-14T04:22:16.636Z,13.50
2022-10-14T04:24:48.411Z,13.50
2022-10-14T04:27:17.097Z,13.50
2022-10-14T04:29:55.346Z,13.50
2022-10-14T04:32:29.917Z,13.50
2022-10-14T04:34:58.440Z,13.50
2022-10-14T04:37:32.782Z,13.60
2022-10-14T04:40:06.153Z,13.50
2022-10-14T04:42:40.071Z,13.50
2022-10-14T04:45:17.117Z,13.60
2022-10-14T04:47:52.752Z,13.50
2022-10-14T04:50:24.716Z,13.50
2022-10-14T04:53:41.727Z,13.50
2022-10-14T04:56:33.715Z,13.50
2022-10-14T04:59:04.459Z,13.50
2022-10-14T05:01:52.289Z,13.50
2022-10-14T05:04:21.033Z,13.40
2022-10-14T05:06:51.428Z,13.50
2022-10-14T05:09:22.941Z,13.50
2022-10-14T05:11:52.107Z,13.50
2022-10-14T05:14:23.976Z,13.50
2022-10-14T05:17:04.481Z,13.50
2022-10-14T05:19:45.207Z,13.50
2022-10-14T05:22:26.009Z,13.50
2022-10-14T05:24:56.170Z,13.50
2022-10-14T05:27:24.782Z,13.60
2022-10-14T05:29:53.282Z,13.60
2022-10-14T05:32:21.761Z,13.60
2022-10-14T05:34:52.952Z,13.60
2022-10-14T05:37:29.315Z,13.60
2022-10-14T05:39:59.411Z,13.60
2022-10-14T05:42:28.601Z,13.60
2022-10-14T05:45:00.743Z,13.70
2022-10-14T05:47:31.817Z,13.70
2022-10-14T05:50:07.018Z,13.80
2022-10-14T05:52:35.727Z,13.80
2022-10-14T05:55:14.744Z,13.80
2022-10-14T05:57:44.674Z,13.80
2022-10-14T06:00:24.647Z,13.80
2022-10-14T06:02:58.593Z,13.80
2022-10-14T06:05:27.303Z,13.80
2022-10-14T06:07:55.643Z,13.80
2022-10-14T06:10:25.388Z,13.80
2022-10-14T06:12:53.736Z,13.90
2022-10-14T06:15:22.651Z,13.90
2022-10-14T06:17:51.419Z,13.90
2022-10-14T06:20:19.682Z,13.80
2022-10-14T06:22:47.763Z,13.90
2022-10-14T06:25:16.097Z,13.90
2022-10-14T06:27:45.590Z,13.90
2022-10-14T06:30:17.227Z,13.90
2022-10-14T06:32:45.535Z,13.90
2022-10-14T06:35:15.263Z,13.90
2022-10-14T06:37:46.164Z,14.00
2022-10-14T06:40:14.955Z,14.00
2022-10-14T06:42:43.433Z,14.00
2022-10-14T06:45:13.521Z,14.00
2022-10-14T06:47:42.111Z,14.10
2022-10-14T06:50:10.583Z,14.00
2022-10-14T06:52:39.032Z,14.10
2022-10-14T06:55:08.786Z,14.10
2022-10-14T06:57:37.081Z,14.20
2022-10-14T07:00:07.050Z,14.20
2022-10-14T07:02:41.808Z,14.30
2022-10-14T07:05:11.238Z,14.20
2022-10-14T07:07:39.771Z,14.20
2022-10-14T07:10:09.123Z,14.20
2022-10-14T07:12:38.225Z,14.20
2022-10-14T07:15:09.810Z,14.10
2022-10-14T07:17:39.621Z,14.10
2022-10-14T07:20:11.754Z,14.10
2022-10-14T07:22:40.684Z,14.20
2022-10-14T07:25:10.260Z,14.20
2022-10-14T07:27:41.255Z,14.20
2022-10-14T07:30:15.259Z,14.30
2022-10-14T07:32:50.523Z,14.20
2022-10-14T07:35:20.003Z,14.30
2022-10-14T07:37:50.485Z,14.30
2022-10-14T07:40:19.474Z,14.40
2022-10-14T07:42:47.974Z,14.40
2022-10-14T07:45:18.550Z,14.40
2022-10-14T07:47:49.926Z,14.30
2022-10-14T07:50:18.818Z,14.30
2022-10-14T07:52:47.220Z,14.30
2022-10-14T07:55:15.540Z,14.30
2022-10-14T07:57:44.138Z,14.30
2022-10-14T08:00:13.915Z,14.30
2022-10-14T08:02:45.472Z,14.30
2022-10-14T08:08:04.065Z,14.30
2022-10-14T08:10:33.256Z,14.40
2022-10-14T08:13:01.828Z,14.40
2022-10-14T08:15:33.855Z,14.40
2022-10-14T08:18:02.374Z,14.50
2022-10-14T08:20:32.403Z,14.50
2022-10-14T08:23:00.943Z,14.50
2022-10-14T08:25:30.777Z,14.60
2022-10-14T08:27:59.253Z,14.70
2022-10-14T08:30:27.552Z,14.70
2022-10-14T08:32:55.910Z,14.80
2022-10-14T08:35:24.559Z,14.80
2022-10-14T08:38:03.912Z,14.80
2022-10-14T08:40:54.886Z,14.80
2022-10-14T08:43:31.368Z,14.90
2022-10-14T08:46:07.548Z,15.00
2022-10-14T08:48:36.819Z,15.00
2022-10-14T08:51:10.554Z,15.00
2022-10-14T08:53:45.186Z,15.00
2022-10-14T08:56:15.594Z,14.90
2022-10-14T08:58:48.194Z,14.90
2022-10-14T09:01:23.376Z,14.90
2022-10-14T09:03:57.686Z,14.90
2022-10-14T09:06:28.545Z,15.00
2022-10-14T09:09:05.619Z,15.00
2022-10-14T09:11:41.042Z,15.00
2022-10-14T09:14:14.295Z,15.10
2022-10-14T09:16:46.700Z,15.10
2022-10-14T09:19:27.274Z,15.10
2022-10-14T09:21:56.803Z,15.10
2022-10-14T09:24:28.144Z,15.20
2022-10-14T09:27:04.229Z,15.20
2022-10-14T09:29:37.042Z,15.30
2022-10-14T09:32:08.854Z,15.40
2022-10-14T09:34:39.903Z,15.40
2022-10-14T09:37:25.193Z,15.40
2022-10-14T09:39:58.113Z,15.40
2022-10-14T09:42:31.853Z,15.30
2022-10-14T09:45:12.320Z,15.30
2022-10-14T09:47:52.405Z,15.30
2022-10-14T09:50:24.500Z,15.30
2022-10-14T09:52:56.853Z,15.40
2022-10-14T09:55:26.766Z,15.40
2022-10-14T09:58:07.848Z,15.50
2022-10-14T10:00:38.809Z,15.50
2022-10-14T10:03:09.903Z,15.60
2022-10-14T10:05:39.950Z,15.70
2022-10-14T10:08:18.296Z,15.80
2022-10-14T10:11:05.709Z,16.00
2022-10-14T10:13:46.450Z,16.10
2022-10-14T10:16:24.128Z,16.30
2022-10-14T10:18:55.205Z,16.40
2022-10-14T10:21:25.739Z,16.50
2022-10-14T10:23:58.062Z,16.50
2022-10-14T10:26:32.152Z,16.50
2022-10-14T10:29:02.672Z,16.50
2022-10-14T10:31:57.756Z,16.60
2022-10-14T10:35:03.439Z,16.60
2022-10-14T10:37:34.569Z,16.60
2022-10-14T10:40:28.572Z,16.70
2022-10-14T10:43:22.372Z,16.70
2022-10-14T10:46:07.542Z,16.60
2022-10-14T10:48:45.486Z,16.50
2022-10-14T10:51:18.096Z,16.50
2022-10-14T10:54:07.751Z,16.40
2022-10-14T10:56:43.838Z,16.40
2022-10-14T10:59:56.376Z,16.40
2022-10-14T11:02:54.988Z,16.30
2022-10-14T11:05:50.021Z,16.30
2022-10-14T11:09:10.117Z,16.20
2022-10-14T11:12:05.521Z,16.20
2022-10-14T11:15:12.639Z,16.20
2022-10-14T11:17:50.116Z,16.10
2022-10-14T11:20:28.829Z,16.00
2022-10-14T11:23:15.804Z,16.10
2022-10-14T11:25:51.200Z,16.00
2022-10-14T11:28:26.483Z,16.00
2022-10-14T11:31:12.348Z,15.90
2022-10-14T11:33:56.677Z,15.90
2022-10-14T11:36:33.766Z,15.90
2022-10-14T11:39:12.523Z,15.90
2022-10-14T11:42:01.416Z,15.90
2022-10-14T11:47:10.071Z,15.90
2022-10-14T11:49:47.173Z,15.80
2022-10-14T11:52:22.538Z,15.80
2022-10-14T11:54:56.837Z,15.70
2022-10-14T11:57:33.906Z,15.70
2022-10-14T12:00:40.224Z,15.70
2022-10-14T12:03:17.161Z,15.40
2022-10-14T12:05:52.378Z,15.30
2022-10-14T12:08:30.379Z,15.30
2022-10-14T12:11:08.161Z,15.40
2022-10-14T12:13:42.710Z,15.40
2022-10-14T12:16:15.348Z,15.50
2022-10-14T12:18:45.717Z,15.50
2022-10-14T12:21:25.438Z,15.50
2022-10-14T12:24:00.572Z,15.50
2022-10-14T12:26:47.957Z,15.50
2022-10-14T12:29:19.917Z,15.40
2022-10-14T12:31:51.836Z,15.30
2022-10-14T12:34:34.904Z,15.20
2022-10-14T12:37:52.007Z,15.20
2022-10-14T12:40:30.201Z,15.10
2022-10-14T12:43:15.324Z,15.10
2022-10-14T12:45:56.225Z,15.10
2022-10-14T12:48:26.471Z,15.00
2022-10-14T12:51:07.472Z,15.00
2022-10-14T12:53:37.521Z,15.00
2022-10-14T12:56:10.930Z,15.00
2022-10-14T12:58:44.828Z,15.00
2022-10-14T13:01:18.730Z,15.00
2022-10-14T13:03:54.783Z,15.00
2022-10-14T13:06:44.414Z,15.10
2022-10-14T13:09:39.753Z,15.10
2022-10-14T13:12:44.956Z,15.20
2022-10-14T13:15:46.544Z,15.20
2022-10-14T13:18:52.578Z,15.20
2022-10-14T13:21:54.025Z,15.30
2022-10-14T13:24:27.034Z,15.20
2022-10-14T13:27:08.308Z,15.30
2022-10-14T13:29:54.236Z,15.30
2022-10-14T13:32:31.910Z,15.30
2022-10-14T13:35:10.957Z,15.30
2022-10-14T13:37:44.913Z,15.30
2022-10-14T13:40:22.598Z,15.30
2022-10-14T13:42:54.987Z,15.40
2022-10-14T13:45:29.518Z,15.50
2022-10-14T13:47:58.508Z,15.50
2022-10-14T13:50:37.919Z,15.60
2022-10-14T13:53:16.365Z,15.50
2022-10-14T13:55:51.544Z,15.50
2022-10-14T13:58:23.362Z,15.40
2022-10-14T14:01:01.620Z,15.40
2022-10-14T14:03:33.579Z,15.20
2022-10-14T14:06:10.979Z,15.20
2022-10-14T14:08:48.167Z,15.10
2022-10-14T14:11:22.788Z,15.00
2022-10-14T14:14:00.835Z,15.00
2022-10-14T14:16:35.471Z,15.00
2022-10-14T14:19:09.590Z,15.00
2022-10-14T14:21:40.401Z,15.00
2022-10-14T14:24:19.430Z,15.00
2022-10-14T14:26:56.628Z,15.00
2022-10-14T14:29:30.526Z,15.00
2022-10-14T14:32:06.787Z,15.10
2022-10-14T14:34:41.295Z,15.10
2022-10-14T14:37:40.274Z,15.10
2022-10-14T14:40:10.772Z,15.10
2022-10-14T14:42:41.148Z,15.10
2022-10-14T14:45:16.834Z,15.10
2022-10-14T14:47:45.985Z,15.20
2022-10-14T14:50:29.968Z,15.20
2022-10-14T14:53:04.140Z,15.30
2022-10-14T14:55:43.033Z,15.30
2022-10-14T14:58:27.775Z,15.30
2022-10-14T15:00:58.575Z,15.40
2022-10-14T15:03:29.060Z,15.40
2022-10-14T15:06:00.676Z,15.50
2022-10-14T15:08:33.233Z,15.50
2022-10-14T15:11:02.782Z,15.50
2022-10-14T15:13:47.713Z,15.50
2022-10-14T15:16:34.065Z,15.50
2022-10-14T15:19:28.695Z,15.50
2022-10-14T15:22:28.655Z,15.50
2022-10-14T15:25:18.985Z,15.40
2022-10-14T15:27:53.425Z,15.40
2022-10-14T15:30:27.309Z,15.50
2022-10-14T15:33:01.261Z,15.60
2022-10-14T15:35:30.520Z,15.60
2022-10-14T15:37:59.142Z,15.60
2022-10-14T15:40:34.346Z,15.60
2022-10-14T15:43:02.863Z,15.60
2022-10-14T15:45:31.442Z,15.60
2022-10-14T15:48:05.332Z,15.70
2022-10-14T15:50:36.150Z,15.70
2022-10-14T15:53:04.545Z,15.70
2022-10-14T15:55:35.312Z,15.70
2022-10-14T15:58:05.499Z,15.60
2022-10-14T16:00:35.530Z,15.60
2022-10-14T16:03:07.723Z,15.60
2022-10-14T16:05:38.726Z,15.60
2022-10-14T16:08:13.784Z,15.60
2022-10-14T16:10:44.651Z,15.60
2022-10-14T16:13:14.312Z,15.60
2022-10-14T16:15:49.120Z,15.50
2022-10-14T16:18:21.518Z,15.50
2022-10-14T16:20:55.423Z,15.50
2022-10-14T16:23:29.571Z,15.50
2022-10-14T16:26:05.406Z,15.50
2022-10-14T16:28:35.829Z,15.50
2022-10-14T16:31:06.035Z,15.40
2022-10-14T16:33:35.205Z,15.50
2022-10-14T16:36:06.932Z,15.50
2022-10-14T16:38:35.471Z,15.50
2022-10-14T16:41:05.116Z,15.50
2022-10-14T16:43:33.587Z,15.50
2022-10-14T16:46:05.203Z,15.40
2022-10-14T16:48:35.024Z,15.50
2022-10-14T16:51:03.727Z,15.50
2022-10-14T16:53:42.121Z,15.50
2022-10-14T16:56:33.480Z,15.50
2022-10-14T16:59:02.480Z,15.50
2022-10-14T17:01:31.462Z,15.50
2022-10-14T17:04:00.343Z,15.50
2022-10-14T17:06:28.891Z,15.50
2022-10-14T17:08:57.774Z,15.50
2022-10-14T17:11:28.267Z,15.40
2022-10-14T17:13:57.411Z,15.40
2022-10-14T17:16:30.905Z,15.40
2022-10-14T17:19:00.547Z,15.30
2022-10-14T17:21:29.345Z,15.30
2022-10-14T17:24:01.394Z,15.30
2022-10-14T17:26:34.517Z,15.40
2022-10-14T17:29:03.346Z,15.40
2022-10-14T17:31:32.074Z,15.40
2022-10-14T17:34:04.024Z,15.40
2022-10-14T17:36:32.991Z,15.40
2022-10-14T17:39:02.506Z,15.40
2022-10-14T17:41:35.278Z,15.50
2022-10-14T17:44:04.840Z,15.50
2022-10-14T17:46:39.143Z,15.50
2022-10-14T17:49:11.068Z,15.50
2022-10-14T17:51:45.475Z,15.50
2022-10-14T17:54:14.885Z,15.40
2022-10-14T17:56:51.477Z,15.50
2022-10-14T18:06:48.999Z,15.50
2022-10-14T18:09:17.133Z,15.40
2022-10-14T18:14:42.170Z,15.40
2022-10-14T18:17:12.828Z,15.40
2022-10-14T18:19:42.080Z,15.40
2022-10-14T18:22:11.600Z,15.40
2022-10-14T18:24:43.705Z,15.40
2022-10-14T18:27:14.524Z,15.40
2022-10-14T18:29:50.060Z,15.50
2022-10-14T18:32:20.244Z,15.40
2022-10-14T18:34:50.697Z,15.50
2022-10-14T18:37:18.910Z,15.50
2022-10-14T18:39:47.330Z,15.50
2022-10-14T18:42:18.440Z,15.50
2022-10-14T18:44:50.578Z,15.50
2022-10-14T18:47:19.416Z,15.50
2022-10-14T18:49:59.861Z,15.40
2022-10-14T18:52:28.746Z,15.40
2022-10-14T18:54:58.627Z,15.40
2022-10-14T18:57:27.320Z,15.30
2022-10-14T18:59:57.753Z,15.30
2022-10-14T19:02:25.927Z,15.30
2022-10-14T19:04:56.020Z,15.30
2022-10-14T19:07:24.251Z,15.30
2022-10-14T19:09:54.165Z,15.20
2022-10-14T19:12:43.696Z,15.20
2022-10-14T19:15:13.889Z,15.20
2022-10-14T19:17:42.846Z,15.20
2022-10-14T19:20:11.722Z,15.20
2022-10-14T19:22:45.348Z,15.20
2022-10-14T19:25:13.768Z,15.20
2022-10-14T19:27:43.635Z,15.20
2022-10-14T19:30:13.815Z,15.20
2022-10-14T19:32:42.003Z,15.20
2022-10-14T19:35:10.684Z,15.20
2022-10-14T19:37:39.031Z,15.20
2022-10-14T19:40:08.391Z,15.20
2022-10-14T19:42:36.582Z,15.10
2022-10-14T19:45:05.974Z,15.10
2022-10-14T19:47:36.135Z,15.10
2022-10-14T19:50:05.969Z,15.10
2022-10-14T19:52:34.072Z,15.10
2022-10-14T19:55:02.602Z,15.00
2022-10-14T19:57:30.802Z,15.00
2022-10-14T19:59:59.032Z,15.00
2022-10-14T20:02:27.240Z,15.00
2022-10-14T20:04:56.699Z,14.90
2022-10-14T20:07:25.311Z,14.90
2022-10-14T20:09:54.194Z,14.80
2022-10-14T20:12:23.179Z,14.80
2022-10-14T20:14:51.649Z,14.70
2022-10-14T20:19:53.318Z,14.60
2022-10-14T20:22:23.280Z,14.60
2022-10-14T20:24:52.134Z,14.50
2022-10-14T20:27:20.480Z,14.50
2022-10-14T20:29:48.915Z,14.50
2022-10-14T20:32:18.023Z,14.50
2022-10-14T20:34:46.238Z,14.50
2022-10-14T20:37:14.926Z,14.60
2022-10-14T20:39:44.667Z,14.60
2022-10-14T20:42:13.204Z,14.60
2022-10-14T20:44:41.918Z,14.50
2022-10-14T20:47:10.698Z,14.50
2022-10-14T20:49:40.745Z,14.50
2022-10-14T20:52:10.193Z,14.60
2022-10-14T20:54:38.726Z,14.50
2022-10-14T20:57:10.596Z,14.50
2022-10-14T20:59:41.410Z,14.50
2022-10-14T21:02:17.365Z,14.60
2022-10-14T21:04:49.748Z,14.60
2022-10-14T21:07:20.053Z,14.60
2022-10-14T21:09:50.037Z,14.60
2022-10-14T21:12:21.188Z,14.60
2022-10-14T21:14:50.252Z,14.70
2022-10-14T21:17:20.544Z,14.60
2022-10-14T21:19:49.972Z,14.60
2022-10-14T21:22:18.179Z,14.60
2022-10-14T21:24:46.371Z,14.60
2022-10-14T21:27:17.183Z,14.60
2022-10-14T21:29:49.215Z,14.60
2022-10-14T21:32:17.546Z,14.60
2022-10-14T21:34:45.805Z,14.70
2022-10-14T21:37:15.460Z,14.60
2022-10-14T21:39:43.734Z,14.70
2022-10-14T21:42:14.261Z,14.60
2022-10-14T21:44:43.995Z,14.60
2022-10-14T21:47:14.352Z,14.60
2022-10-14T21:49:42.761Z,14.60
2022-10-14T21:52:11.251Z,14.70
2022-10-14T21:54:40.116Z,14.60
2022-10-14T21:57:08.437Z,14.60
2022-10-14T21:59:36.640Z,14.60
2022-10-14T22:02:04.999Z,14.60
2022-10-14T22:04:37.531Z,14.60
2022-10-14T22:07:06.973Z,14.60
2022-10-14T22:09:35.338Z,14.60
2022-10-14T22:12:03.812Z,14.60
2022-10-14T22:14:31.979Z,14.60
2022-10-14T22:17:00.274Z,14.60
2022-10-14T22:19:28.646Z,14.60
2022-10-14T22:21:59.163Z,14.60
2022-10-14T22:24:27.378Z,14.60
2022-10-14T22:26:55.615Z,14.60
2022-10-14T22:29:23.803Z,14.70
2022-10-14T22:31:51.920Z,14.60
2022-10-14T22:34:20.458Z,14.60
2022-10-14T22:36:48.639Z,14.60
2022-10-14T22:39:18.503Z,14.60
2022-10-14T22:41:46.848Z,14.60
2022-10-14T22:44:14.979Z,14.60
2022-10-14T22:46:43.365Z,14.60
2022-10-14T22:49:11.718Z,14.60
2022-10-14T22:51:41.706Z,14.60
2022-10-14T22:54:10.532Z,14.60
2022-10-14T22:56:40.799Z,14.70
2022-10-14T22:59:11.103Z,14.70
2022-10-14T23:01:40.128Z,14.70
2022-10-14T23:04:08.335Z,14.60
2022-10-14T23:06:36.666Z,14.60
2022-10-14T23:09:05.859Z,14.70
2022-10-14T23:11:34.031Z,14.70
2022-10-14T23:14:07.033Z,14.70
2022-10-14T23:16:36.240Z,14.70
2022-10-14T23:19:04.732Z,14.70
2022-10-14T23:21:34.381Z,14.70
2022-10-14T23:24:04.442Z,14.70
2022-10-14T23:26:35.373Z,14.70
2022-10-14T23:29:07.538Z,14.70
2022-10-14T23:31:37.418Z,14.70
2022-10-14T23:34:07.982Z,14.70
2022-10-14T23:36:36.212Z,14.70
2022-10-14T23:39:05.013Z,14.70
2022-10-14T23:41:36.930Z,14.70
2022-10-14T23:44:07.021Z,14.70
2022-10-14T23:46:35.321Z,14.70
2022-10-14T23:49:21.181Z,14.70
2022-10-14T23:51:52.550Z,14.70
2022-10-14T23:54:20.848Z,14.70
2022-10-14T23:56:49.222Z,14.70
2022-10-14T23:59:18.766Z,14.70
